CheckWX is a tool to help pilots better visualize weather data.  It is not intended as a substitute for an official pre-flight weather briefing.

14:42:46 UTC

KAOH METAR
Lima Allen County Airport
Lima, Ohio, USA
Current

50 mins ago

KAOH 201353Z AUTO 27017G23KT 10SM SCT026 BKN036 15/09 A2995 RMK AO2 SLP138 T01500094
Observed
May-20 @ 13:53 UTC
Wind
  • 270° at 17 KTS
  • Gusting to 23 KTS
Visibility
10 SM
Flight Rules
VFR
Cloud Levels
  • Scattered at 2,600' AGL
  • Broken at 3,600' AGL
Temperature
15°C / 59°F
Dewpoint
C / 48°F
Humidity
68%
Altimeter
29.95" Hg
Pressure
1014.22 hPa
Previous

1 hour ago

KAOH 201340Z AUTO 27013G22KT 10SM SCT024 SCT028 BKN036 14/09 A2994 RMK AO2 T01440094
Observed
May-20 @ 13:40 UTC
Wind
  • 270° at 13 KTS
  • Gusting to 22 KTS
Visibility
10 SM
Flight Rules
VFR
Cloud Levels
  • Scattered at 2,400' AGL
  • Scattered at 2,800' AGL
  • Broken at 3,600' AGL
Temperature
14°C / 57°F
Dewpoint
C / 48°F
Humidity
72%
Altimeter
29.94" Hg
Pressure
1013.92 hPa
Previous

2 hours ago

KAOH 201253Z AUTO 25012KT 10SM SCT021 BKN027 14/11 A2992 RMK AO2 SLP129 T01440106
Observed
May-20 @ 12:53 UTC
Wind
  • 250° at 12 KTS
Visibility
10 SM
Flight Rules
MVFR
Cloud Levels
  • Scattered at 2,100' AGL
  • Broken at 2,700' AGL
Temperature
14°C / 57°F
Dewpoint
11°C / 52°F
Humidity
82%
Altimeter
29.92" Hg
Pressure
1013.22 hPa